Davis Station, South Carolina
Current Conditions -  °F | °C
As of 4:35 PM on Wednesday 17 Dec 2014 (Local Time) from KCKI Reporting Station
NA  
Wind Chill: 61°   Ceiling: NA
Heat Index: 61°   Visibility: 10mi
Dew Point: 52°   Wind: 6mph
Humidity: 72%   Direction: 220°SW
Pressure: 30.07"   Gusts: NA
Location:  33.6°N, 80.26°W
Report Text: KCKI 172135Z AUTO 22005KT 10SM 16/11 A3007 RMK AO2
Loading
Personal Weather Stations






























Interactive Weather Map New forecast layout! Learn more

10-Day Weather Forecast

Advertisements
Track Severe Weather on mobile